createdAt,value
2018-11-14T00:00:42.516Z,8.73
2018-11-14T00:03:11.036Z,7.70
2018-11-14T00:05:39.376Z,8.23
2018-11-14T00:08:07.927Z,7.90
2018-11-14T00:10:36.312Z,7.90
2018-11-14T00:13:04.772Z,7.50
2018-11-14T00:15:33.204Z,7.50
2018-11-14T00:18:01.996Z,7.13
2018-11-14T00:20:30.363Z,7.87
2018-11-14T00:22:58.697Z,7.17
2018-11-14T00:25:27.420Z,7.50
2018-11-14T00:27:55.787Z,7.33
2018-11-14T00:30:25.254Z,6.60
2018-11-14T00:32:53.597Z,6.77
2018-11-14T00:35:22.093Z,7.43
2018-11-14T00:37:50.824Z,7.77
2018-11-14T00:40:19.913Z,7.47
2018-11-14T00:42:48.698Z,7.30
2018-11-14T00:45:18.394Z,7.87
2018-11-14T00:47:47.555Z,8.10
2018-11-14T00:50:17.736Z,7.37
2018-11-14T00:52:46.382Z,7.93
2018-11-14T00:55:19.976Z,8.10
2018-11-14T00:57:49.139Z,7.97
2018-11-14T01:00:18.872Z,7.83
2018-11-14T01:02:47.648Z,9.13
2018-11-14T01:05:16.945Z,8.40
2018-11-14T01:07:46.036Z,8.93
2018-11-14T01:10:16.078Z,9.03
2018-11-14T01:12:44.988Z,9.30
2018-11-14T01:15:15.485Z,10.10
2018-11-14T01:17:43.898Z,9.20
2018-11-14T01:20:15.505Z,10.00
2018-11-14T01:22:44.450Z,11.43
2018-11-14T01:25:13.945Z,9.27
2018-11-14T01:27:42.491Z,9.63
2018-11-14T01:30:13.576Z,9.37
2018-11-14T01:32:42.256Z,9.20
2018-11-14T01:35:11.198Z,10.17
2018-11-14T01:37:39.547Z,9.10
2018-11-14T01:40:10.910Z,10.70
2018-11-14T01:42:39.239Z,10.40
2018-11-14T01:45:09.838Z,9.53
2018-11-14T01:47:38.187Z,11.23
2018-11-14T01:50:07.923Z,10.77
2018-11-14T01:52:36.254Z,9.97
2018-11-14T01:55:04.830Z,10.30
2018-11-14T01:57:33.250Z,18.47
2018-11-14T02:00:01.579Z,10.07
2018-11-14T02:02:30.054Z,11.53
2018-11-14T02:04:58.373Z,17.23
2018-11-14T02:07:26.765Z,11.00
2018-11-14T02:09:55.123Z,11.80
2018-11-14T02:12:23.462Z,12.07
2018-11-14T02:14:51.810Z,9.73
2018-11-14T02:17:20.331Z,12.97
2018-11-14T02:19:48.646Z,8.23
2018-11-14T02:22:17.001Z,8.07
2018-11-14T02:24:45.399Z,7.03
2018-11-14T02:27:13.818Z,7.33
2018-11-14T02:29:42.132Z,7.57
2018-11-14T02:32:10.658Z,8.00
2018-11-14T02:34:38.985Z,8.70
2018-11-14T02:37:07.442Z,9.53
2018-11-14T02:39:35.838Z,8.60
2018-11-14T02:42:04.553Z,8.73
2018-11-14T02:44:32.863Z,9.53
2018-11-14T02:47:01.187Z,9.13
2018-11-14T02:49:29.567Z,10.43
2018-11-14T02:51:57.950Z,9.07
2018-11-14T02:54:26.298Z,9.70
2018-11-14T02:56:54.605Z,8.83
2018-11-14T02:59:22.891Z,10.70
2018-11-14T03:01:51.223Z,9.00
2018-11-14T03:04:19.680Z,10.33
2018-11-14T03:06:47.981Z,9.87
2018-11-14T03:09:17.413Z,10.27
2018-11-14T03:11:45.771Z,10.33
2018-11-14T03:14:14.285Z,10.47
2018-11-14T03:16:42.595Z,10.03
2018-11-14T03:19:11.321Z,8.80
2018-11-14T03:21:39.716Z,9.67
2018-11-14T03:24:08.226Z,8.47
2018-11-14T03:26:36.520Z,10.17
2018-11-14T03:29:04.906Z,10.93
2018-11-14T03:31:33.219Z,10.50
2018-11-14T03:34:01.571Z,10.50
2018-11-14T03:36:29.956Z,12.40
2018-11-14T03:38:58.371Z,11.67
2018-11-14T03:41:26.657Z,11.40
2018-11-14T03:43:54.971Z,11.47
2018-11-14T03:46:23.385Z,10.70
2018-11-14T03:48:51.734Z,9.30
2018-11-14T03:51:20.378Z,10.10
2018-11-14T03:53:48.764Z,10.20
2018-11-14T03:56:17.292Z,9.23
2018-11-14T03:58:45.639Z,9.57
2018-11-14T04:01:14.163Z,10.30
2018-11-14T04:03:42.454Z,10.67
2018-11-14T04:06:10.952Z,9.90
2018-11-14T04:08:39.349Z,10.73
2018-11-14T04:11:07.873Z,10.30
2018-11-14T04:13:36.200Z,10.47
2018-11-14T04:16:04.670Z,8.93
2018-11-14T04:18:33.035Z,9.97
2018-11-14T04:21:01.421Z,11.10
2018-11-14T04:23:29.802Z,10.87
2018-11-14T04:25:58.134Z,9.10
2018-11-14T04:28:26.459Z,12.10
2018-11-14T04:30:55.529Z,12.37
2018-11-14T04:33:23.918Z,20.43
2018-11-14T04:35:52.903Z,12.20
2018-11-14T04:38:21.840Z,13.90
2018-11-14T04:40:50.154Z,10.00
2018-11-14T04:43:18.753Z,10.17
2018-11-14T04:45:47.154Z,10.07
2018-11-14T04:48:15.678Z,11.30
2018-11-14T04:50:44.003Z,9.80
2018-11-14T04:53:12.562Z,10.07
2018-11-14T04:55:40.955Z,9.17
2018-11-14T04:58:09.614Z,10.00
2018-11-14T05:00:38.029Z,9.00
2018-11-14T05:03:06.389Z,8.93
2018-11-14T05:05:34.754Z,10.27
2018-11-14T05:08:03.487Z,10.80
2018-11-14T05:10:31.863Z,12.67
2018-11-14T05:13:00.282Z,11.77
2018-11-14T05:15:28.575Z,12.07
2018-11-14T05:17:57.016Z,12.70
2018-11-14T05:20:25.378Z,16.93
2018-11-14T05:22:53.840Z,12.43
2018-11-14T05:25:22.723Z,13.47
2018-11-14T05:27:51.044Z,13.20
2018-11-14T05:30:21.960Z,10.20
2018-11-14T05:32:50.793Z,11.43
2018-11-14T05:35:20.183Z,12.67
2018-11-14T05:37:48.985Z,12.80
2018-11-14T05:40:18.897Z,11.77
2018-11-14T05:42:48.020Z,10.77
2018-11-14T05:45:18.884Z,10.60
2018-11-14T05:47:47.221Z,11.23
2018-11-14T05:50:16.913Z,11.63
2018-11-14T05:52:45.251Z,10.10
2018-11-14T05:55:14.348Z,10.73
2018-11-14T05:57:42.686Z,10.37
2018-11-14T06:00:15.508Z,11.00
2018-11-14T06:02:44.517Z,11.00
2018-11-14T06:05:13.456Z,11.03
2018-11-14T06:07:41.928Z,10.60
2018-11-14T06:10:11.625Z,11.03
2018-11-14T06:12:40.467Z,11.73
2018-11-14T06:15:11.618Z,10.37
2018-11-14T06:17:40.597Z,11.10
2018-11-14T06:20:11.385Z,11.57
2018-11-14T06:22:39.806Z,11.50
2018-11-14T06:25:20.355Z,12.97
2018-11-14T06:27:48.990Z,11.67
2018-11-14T06:30:17.570Z,12.27
2018-11-14T06:32:45.998Z,12.33
2018-11-14T06:35:14.634Z,12.93
2018-11-14T06:37:42.932Z,12.90
2018-11-14T06:40:12.043Z,12.87
2018-11-14T06:42:40.895Z,12.47
2018-11-14T06:45:12.118Z,12.10
2018-11-14T06:47:41.030Z,11.57
2018-11-14T06:50:10.175Z,13.10
2018-11-14T06:52:38.823Z,11.97
2018-11-14T06:55:08.299Z,13.13
2018-11-14T06:57:36.861Z,13.20
2018-11-14T07:00:07.486Z,12.40
2018-11-14T07:02:38.338Z,12.67
2018-11-14T07:05:04.543Z,13.43
2018-11-14T07:07:32.789Z,12.87
2018-11-14T07:10:01.169Z,12.90
2018-11-14T07:12:29.484Z,12.07
2018-11-14T07:14:57.828Z,12.70
2018-11-14T07:17:26.395Z,12.67
2018-11-14T07:19:54.732Z,14.30
2018-11-14T07:22:23.128Z,12.60
2018-11-14T07:24:51.487Z,11.93
2018-11-14T07:27:19.998Z,11.47
2018-11-14T07:29:48.393Z,11.87
2018-11-14T07:32:16.993Z,12.03
2018-11-14T07:34:45.390Z,12.17
2018-11-14T07:37:13.746Z,14.20
2018-11-14T07:39:42.065Z,14.87
2018-11-14T07:42:10.474Z,16.77
2018-11-14T07:44:38.907Z,17.30
2018-11-14T07:47:07.252Z,16.40
2018-11-14T07:49:35.568Z,18.30
2018-11-14T07:52:03.956Z,16.20
2018-11-14T07:54:32.250Z,16.43
2018-11-14T07:57:00.580Z,21.07
2018-11-14T07:59:28.982Z,20.47
2018-11-14T08:01:57.412Z,20.17
2018-11-14T08:04:25.821Z,20.40
2018-11-14T08:06:54.288Z,22.50
2018-11-14T08:09:22.643Z,22.70
2018-11-14T08:11:50.989Z,22.83
2018-11-14T08:14:19.627Z,29.50
2018-11-14T08:16:47.937Z,27.83
2018-11-14T08:19:16.316Z,27.60
2018-11-14T08:21:44.676Z,27.30
2018-11-14T08:24:13.016Z,26.03
2018-11-14T08:26:41.346Z,26.33
2018-11-14T08:29:09.695Z,26.27
2018-11-14T08:31:37.993Z,24.90
2018-11-14T08:34:06.648Z,26.30
2018-11-14T08:36:34.984Z,25.00
2018-11-14T08:39:03.407Z,23.03
2018-11-14T08:41:31.764Z,23.50
2018-11-14T08:44:00.142Z,22.97
2018-11-14T08:46:28.517Z,22.67
2018-11-14T08:48:56.854Z,22.70
2018-11-14T08:51:25.223Z,20.17
2018-11-14T08:53:53.552Z,19.57
2018-11-14T08:56:21.885Z,20.77
2018-11-14T08:58:50.248Z,20.93
2018-11-14T09:01:18.609Z,19.53
2018-11-14T09:03:46.929Z,20.57
2018-11-14T09:06:15.539Z,18.87
2018-11-14T09:08:43.869Z,19.93
2018-11-14T09:11:12.289Z,19.47
2018-11-14T09:13:40.498Z,19.20
2018-11-14T09:16:08.819Z,17.50
2018-11-14T09:18:37.239Z,19.20
2018-11-14T09:21:05.921Z,19.63
2018-11-14T09:23:34.288Z,18.87
2018-11-14T09:26:02.596Z,22.43
2018-11-14T09:28:30.970Z,22.20
2018-11-14T09:30:59.314Z,25.73
2018-11-14T09:33:27.683Z,19.87
2018-11-14T09:35:56.095Z,19.83
2018-11-14T09:38:24.397Z,20.00
2018-11-14T09:40:52.790Z,18.53
2018-11-14T09:43:21.094Z,17.13
2018-11-14T09:45:49.387Z,17.43
2018-11-14T09:48:17.667Z,18.70
2018-11-14T09:50:45.978Z,16.67
2018-11-14T09:53:14.410Z,16.90
2018-11-14T09:55:42.671Z,16.43
2018-11-14T09:58:11.030Z,16.23
2018-11-14T10:00:39.490Z,16.10
2018-11-14T10:03:09.695Z,15.33
2018-11-14T10:05:38.088Z,16.93
2018-11-14T10:08:06.541Z,17.10
2018-11-14T10:10:34.814Z,15.23
2018-11-14T10:13:03.159Z,16.87
2018-11-14T10:15:31.531Z,17.77
2018-11-14T10:17:59.819Z,21.20
2018-11-14T10:20:28.186Z,17.93
2018-11-14T10:22:56.529Z,18.37
2018-11-14T10:25:24.903Z,20.20
2018-11-14T10:27:53.285Z,19.90
2018-11-14T10:30:23.199Z,19.03
2018-11-14T10:32:52.039Z,18.17
2018-11-14T10:35:20.429Z,15.93
2018-11-14T10:37:48.774Z,15.93
2018-11-14T10:40:19.470Z,23.00
2018-11-14T10:42:47.910Z,25.73
2018-11-14T10:45:17.621Z,21.37
2018-11-14T10:47:45.987Z,14.30
2018-11-14T10:50:16.636Z,15.30
2018-11-14T10:52:44.977Z,16.13
2018-11-14T10:55:14.159Z,16.63
2018-11-14T10:57:42.558Z,17.03
2018-11-14T11:00:21.279Z,13.00
2018-11-14T11:02:55.155Z,15.40
2018-11-14T11:06:29.115Z,14.77
2018-11-14T11:09:02.891Z,16.43
2018-11-14T11:11:35.437Z,11.73
2018-11-14T11:14:09.114Z,11.70
2018-11-14T11:16:41.688Z,13.53
2018-11-14T11:19:10.039Z,13.73
2018-11-14T11:21:38.377Z,13.40
2018-11-14T11:24:06.700Z,15.77
2018-11-14T11:26:35.670Z,15.87
2018-11-14T11:29:04.043Z,15.10
2018-11-14T11:31:32.414Z,15.53
2018-11-14T11:34:00.772Z,15.40
2018-11-14T11:36:29.182Z,13.80
2018-11-14T11:38:57.549Z,16.27
2018-11-14T11:41:26.446Z,14.07
2018-11-14T11:43:55.152Z,15.67
2018-11-14T11:46:23.887Z,13.53
2018-11-14T11:48:52.512Z,11.37
2018-11-14T11:51:20.814Z,12.27
2018-11-14T11:53:49.189Z,12.23
2018-11-14T11:56:18.030Z,12.83
2018-11-14T11:58:46.411Z,14.57
2018-11-14T12:01:14.918Z,12.80
2018-11-14T12:03:43.322Z,13.87
2018-11-14T12:06:11.831Z,12.10
2018-11-14T12:08:40.031Z,13.73
2018-11-14T12:11:08.429Z,12.83
2018-11-14T12:13:36.850Z,13.37
2018-11-14T12:16:05.204Z,17.93
2018-11-14T12:18:33.588Z,15.17
2018-11-14T12:21:01.921Z,14.10
2018-11-14T12:23:30.444Z,15.93
2018-11-14T12:25:58.720Z,15.27
2018-11-14T12:28:27.358Z,14.73
2018-11-14T12:30:55.828Z,15.37
2018-11-14T12:33:24.279Z,18.47
2018-11-14T12:35:52.656Z,15.30
2018-11-14T12:38:20.977Z,19.10
2018-11-14T12:40:49.382Z,24.57
2018-11-14T12:43:17.718Z,20.83
2018-11-14T12:45:46.058Z,17.70
2018-11-14T12:48:14.423Z,17.50
2018-11-14T12:50:42.774Z,17.90
2018-11-14T12:53:11.145Z,18.30
2018-11-14T12:55:39.514Z,17.90
2018-11-14T12:58:07.820Z,18.97
2018-11-14T13:00:36.280Z,16.20
2018-11-14T13:03:04.647Z,18.53
2018-11-14T13:05:33.211Z,18.23
2018-11-14T13:08:01.519Z,17.37
2018-11-14T13:10:29.932Z,17.10
2018-11-14T13:12:58.239Z,17.17
2018-11-14T13:15:26.596Z,17.23
2018-11-14T13:17:54.956Z,17.87
2018-11-14T13:20:24.499Z,19.10
2018-11-14T13:22:52.908Z,17.90
2018-11-14T13:25:21.276Z,16.60
2018-11-14T13:27:49.779Z,17.27
2018-11-14T13:30:20.458Z,16.07
2018-11-14T13:32:49.369Z,15.90
2018-11-14T13:35:18.770Z,16.43
2018-11-14T13:37:47.901Z,15.83
2018-11-14T13:40:16.237Z,15.33
2018-11-14T13:42:44.852Z,18.07
2018-11-14T13:45:14.459Z,16.17
2018-11-14T13:47:43.004Z,14.57
2018-11-14T13:50:16.494Z,16.27
2018-11-14T13:52:44.740Z,16.70
2018-11-14T13:55:15.187Z,14.17
2018-11-14T13:57:44.778Z,16.10
2018-11-14T14:00:14.453Z,15.90
2018-11-14T14:02:43.500Z,14.27
2018-11-14T14:05:19.601Z,14.20
2018-11-14T14:07:47.918Z,14.37
2018-11-14T14:10:16.956Z,14.53
2018-11-14T14:12:46.709Z,13.70
2018-11-14T14:15:17.627Z,13.07
2018-11-14T14:17:46.685Z,12.93
2018-11-14T14:20:15.705Z,13.30
2018-11-14T14:22:44.059Z,13.27
2018-11-14T14:25:13.628Z,13.77
2018-11-14T14:27:42.002Z,14.67
2018-11-14T14:30:12.181Z,14.13
2018-11-14T14:32:41.380Z,12.87
2018-11-14T14:35:10.716Z,11.73
2018-11-14T14:37:39.249Z,11.03
2018-11-14T14:40:10.299Z,10.90
2018-11-14T14:42:38.769Z,10.63
2018-11-14T14:45:08.506Z,10.13
2018-11-14T14:47:37.316Z,9.97
2018-11-14T14:50:07.642Z,9.87
2018-11-14T14:52:36.402Z,10.53
2018-11-14T14:55:05.047Z,10.47
2018-11-14T14:57:33.482Z,11.50
2018-11-14T15:00:01.793Z,12.20
2018-11-14T15:02:30.164Z,11.53
2018-11-14T15:04:58.631Z,11.10
2018-11-14T15:07:27.093Z,10.07
2018-11-14T15:09:55.503Z,10.73
2018-11-14T15:12:23.972Z,11.53
2018-11-14T15:14:52.309Z,11.73
2018-11-14T15:17:21.061Z,11.60
2018-11-14T15:19:49.388Z,10.70
2018-11-14T15:22:17.659Z,11.00
2018-11-14T15:24:45.997Z,10.33
2018-11-14T15:27:14.411Z,11.33
2018-11-14T15:29:42.802Z,11.10
2018-11-14T15:32:11.227Z,10.87
2018-11-14T15:34:39.595Z,11.57
2018-11-14T15:37:07.896Z,12.33
2018-11-14T15:39:36.413Z,12.20
2018-11-14T15:42:05.216Z,12.80
2018-11-14T15:44:33.780Z,12.63
2018-11-14T15:47:02.280Z,13.37
2018-11-14T15:49:30.646Z,14.23
2018-11-14T15:51:58.953Z,13.10
2018-11-14T15:54:27.642Z,13.37
2018-11-14T15:56:55.952Z,14.33
2018-11-14T15:59:24.291Z,13.70
2018-11-14T16:01:52.853Z,12.23
2018-11-14T16:04:21.717Z,14.27
2018-11-14T16:06:50.471Z,13.40
2018-11-14T16:09:18.803Z,11.87
2018-11-14T16:11:47.105Z,14.03
2018-11-14T16:14:15.454Z,14.77
2018-11-14T16:16:43.794Z,15.33
2018-11-14T16:19:12.087Z,16.67
2018-11-14T16:21:40.438Z,16.17
2018-11-14T16:24:08.814Z,13.27
2018-11-14T16:26:37.127Z,16.00
2018-11-14T16:29:05.539Z,16.10
2018-11-14T16:31:33.938Z,17.30
2018-11-14T16:34:02.253Z,17.90
2018-11-14T16:36:30.591Z,16.60
2018-11-14T16:38:59.007Z,19.57
2018-11-14T16:41:27.400Z,17.17
2018-11-14T16:43:55.686Z,15.37
2018-11-14T16:46:23.993Z,17.33
2018-11-14T16:48:52.292Z,18.17
2018-11-14T16:51:20.620Z,20.90
2018-11-14T16:53:48.968Z,17.07
2018-11-14T16:56:17.347Z,15.53
2018-11-14T16:58:45.665Z,12.97
2018-11-14T17:01:14.052Z,14.47
2018-11-14T17:03:42.468Z,14.17
2018-11-14T17:06:10.756Z,16.50
2018-11-14T17:08:39.161Z,13.90
2018-11-14T17:11:07.489Z,16.53
2018-11-14T17:13:35.787Z,15.43
2018-11-14T17:16:04.195Z,14.83
2018-11-14T17:18:32.549Z,14.60
2018-11-14T17:21:00.843Z,13.33
2018-11-14T17:23:29.201Z,15.07
2018-11-14T17:25:57.828Z,13.37
2018-11-14T17:28:26.159Z,13.63
2018-11-14T17:30:54.546Z,13.03
2018-11-14T17:33:22.864Z,13.17
2018-11-14T17:35:51.275Z,12.27
2018-11-14T17:38:19.643Z,13.23
2018-11-14T17:40:48.008Z,12.57
2018-11-14T17:43:16.431Z,14.30
2018-11-14T17:45:44.939Z,17.00
2018-11-14T17:48:13.322Z,12.93
2018-11-14T17:50:41.707Z,12.20
2018-11-14T17:53:10.097Z,13.90
2018-11-14T17:55:38.500Z,12.43
2018-11-14T17:58:06.908Z,12.03
2018-11-14T18:00:35.284Z,14.57
2018-11-14T18:03:03.777Z,15.13
2018-11-14T18:05:32.585Z,18.60
2018-11-14T18:08:01.129Z,13.80
2018-11-14T18:10:30.659Z,13.30
2018-11-14T18:13:00.615Z,13.83
2018-11-14T18:15:29.063Z,13.00
2018-11-14T18:17:57.909Z,13.73
2018-11-14T18:20:28.051Z,14.27
2018-11-14T18:22:56.902Z,15.07
2018-11-14T18:25:25.325Z,14.80
2018-11-14T18:27:53.760Z,15.30
2018-11-14T18:30:23.657Z,16.33
2018-11-14T18:32:52.721Z,15.00
2018-11-14T18:35:22.012Z,15.60
2018-11-14T18:37:51.655Z,15.67
2018-11-14T18:40:21.226Z,13.80
2018-11-14T18:42:49.765Z,17.03
2018-11-14T18:45:21.842Z,16.63
2018-11-14T18:47:50.641Z,15.80
2018-11-14T18:50:20.028Z,16.97
2018-11-14T18:52:48.782Z,15.00
2018-11-14T18:55:18.356Z,16.70
2018-11-14T18:57:47.006Z,14.70
2018-11-14T19:00:18.093Z,16.17
2018-11-14T19:02:46.524Z,15.10
2018-11-14T19:05:15.458Z,15.90
2018-11-14T19:07:44.132Z,16.60
2018-11-14T19:10:13.913Z,18.13
2018-11-14T19:12:42.866Z,20.00
2018-11-14T19:15:15.359Z,17.83
2018-11-14T19:17:43.807Z,19.27
2018-11-14T19:20:17.970Z,17.47
2018-11-14T19:22:46.577Z,18.90
2018-11-14T19:25:16.556Z,18.67
2018-11-14T19:27:45.657Z,17.63
2018-11-14T19:30:18.138Z,16.97
2018-11-14T19:32:51.595Z,17.23
2018-11-14T19:35:20.253Z,17.87
2018-11-14T19:37:49.727Z,19.63
2018-11-14T19:40:25.375Z,22.47
2018-11-14T19:42:55.895Z,19.77
2018-11-14T19:45:25.577Z,20.10
2018-11-14T19:47:54.178Z,19.83
2018-11-14T19:50:23.160Z,20.00
2018-11-14T19:52:51.759Z,19.77
2018-11-14T19:55:21.443Z,21.13
2018-11-14T19:57:50.991Z,20.30
2018-11-14T20:00:21.688Z,19.17
2018-11-14T20:02:50.057Z,19.67
2018-11-14T20:05:18.901Z,21.97
2018-11-14T20:07:47.325Z,21.27
2018-11-14T20:10:17.151Z,21.50
2018-11-14T20:12:45.988Z,22.00
2018-11-14T20:15:15.844Z,21.63
2018-11-14T20:17:45.215Z,20.13
2018-11-14T20:20:15.830Z,20.13
2018-11-14T20:22:45.594Z,20.43
2018-11-14T20:25:14.140Z,19.73
2018-11-14T20:27:42.815Z,18.63
2018-11-14T20:30:12.837Z,19.07
2018-11-14T20:32:41.631Z,18.33
2018-11-14T20:35:11.013Z,18.60
2018-11-14T20:37:39.911Z,18.63
2018-11-14T20:40:09.476Z,18.07
2018-11-14T20:42:38.231Z,18.33
2018-11-14T20:45:08.334Z,19.53
2018-11-14T20:47:36.944Z,19.77
2018-11-14T20:50:07.915Z,19.73
2018-11-14T20:52:36.391Z,18.07
2018-11-14T20:55:06.210Z,18.27
2018-11-14T20:57:34.622Z,17.83
2018-11-14T21:00:03.079Z,16.53
2018-11-14T21:02:31.461Z,17.07
2018-11-14T21:04:59.803Z,18.63
2018-11-14T21:07:28.245Z,16.57
2018-11-14T21:09:56.694Z,17.63
2018-11-14T21:12:25.051Z,17.23
2018-11-14T21:14:53.469Z,17.70
2018-11-14T21:17:21.872Z,17.17
2018-11-14T21:19:50.264Z,15.97
2018-11-14T21:22:18.713Z,16.00
2018-11-14T21:24:47.165Z,16.90
2018-11-14T21:27:15.556Z,15.90
2018-11-14T21:29:44.048Z,16.77
2018-11-14T21:32:12.393Z,17.70
2018-11-14T21:34:40.771Z,16.87
2018-11-14T21:37:09.119Z,17.00
2018-11-14T21:39:37.487Z,17.13
2018-11-14T21:42:05.936Z,17.63
2018-11-14T21:44:34.325Z,18.17
2018-11-14T21:47:02.692Z,18.50
2018-11-14T21:49:31.848Z,19.23
2018-11-14T21:52:00.601Z,19.00
2018-11-14T21:54:28.977Z,18.87
2018-11-14T21:56:57.601Z,18.80
2018-11-14T21:59:26.008Z,17.77
2018-11-14T22:01:54.366Z,19.37
2018-11-14T22:04:22.746Z,18.77
2018-11-14T22:06:51.470Z,18.00
2018-11-14T22:09:19.806Z,19.30
2018-11-14T22:11:48.174Z,19.73
2018-11-14T22:14:16.590Z,19.73
2018-11-14T22:16:44.968Z,19.33
2018-11-14T22:19:13.375Z,20.77
2018-11-14T22:21:41.839Z,20.40
2018-11-14T22:24:10.175Z,20.67
2018-11-14T22:26:38.617Z,19.60
2018-11-14T22:29:07.028Z,20.53
2018-11-14T22:31:35.410Z,19.87
2018-11-14T22:34:03.769Z,19.63
2018-11-14T22:36:32.258Z,22.13
2018-11-14T22:39:00.680Z,18.80
2018-11-14T22:41:29.080Z,19.23
2018-11-14T22:43:57.471Z,19.73
2018-11-14T22:46:25.880Z,18.37
2018-11-14T22:48:54.278Z,20.30
2018-11-14T22:51:22.946Z,18.37
2018-11-14T22:53:51.376Z,16.97
2018-11-14T22:56:19.801Z,18.10
2018-11-14T22:58:48.279Z,17.37
2018-11-14T23:01:16.691Z,17.67
2018-11-14T23:03:45.148Z,16.40
2018-11-14T23:06:13.526Z,17.77
2018-11-14T23:08:41.921Z,17.53
2018-11-14T23:11:10.287Z,19.27
2018-11-14T23:13:38.651Z,17.60
2018-11-14T23:16:07.071Z,18.37
2018-11-14T23:18:35.475Z,18.10
2018-11-14T23:21:04.243Z,17.00
2018-11-14T23:23:32.786Z,16.97
2018-11-14T23:26:01.197Z,17.33
2018-11-14T23:28:29.626Z,16.47
2018-11-14T23:30:58.012Z,16.80
2018-11-14T23:33:26.310Z,16.27
2018-11-14T23:35:55.971Z,17.23
2018-11-14T23:38:24.584Z,17.87
2018-11-14T23:40:52.931Z,18.23
2018-11-14T23:43:21.316Z,18.37
2018-11-14T23:45:49.662Z,17.93
2018-11-14T23:48:18.063Z,18.67
2018-11-14T23:50:46.436Z,18.87
2018-11-14T23:53:14.800Z,21.87
2018-11-14T23:55:43.139Z,17.80
2018-11-14T23:58:11.555Z,21.90
